sensor_id;sensor_type;location;lat;lon;timestamp;temperature;humidity
70456;DHT22;57916;51.996;5.180;2023-08-06T00:02:17;19.30;81.70
70456;DHT22;57916;51.996;5.180;2023-08-06T00:04:44;19.30;81.50
70456;DHT22;57916;51.996;5.180;2023-08-06T00:07:11;19.30;81.40
70456;DHT22;57916;51.996;5.180;2023-08-06T00:09:38;19.30;81.50
70456;DHT22;57916;51.996;5.180;2023-08-06T00:12:05;19.30;81.50
70456;DHT22;57916;51.996;5.180;2023-08-06T00:14:32;19.30;81.70
70456;DHT22;57916;51.996;5.180;2023-08-06T00:16:59;19.30;81.60
70456;DHT22;57916;51.996;5.180;2023-08-06T00:19:27;19.30;81.40
70456;DHT22;57916;51.996;5.180;2023-08-06T00:21:54;19.30;81.40
70456;DHT22;57916;51.996;5.180;2023-08-06T00:24:21;19.30;81.60
70456;DHT22;57916;51.996;5.180;2023-08-06T00:26:48;19.30;81.60
70456;DHT22;57916;51.996;5.180;2023-08-06T00:29:15;19.30;81.40
70456;DHT22;57916;51.996;5.180;2023-08-06T00:31:42;19.30;81.40
70456;DHT22;57916;51.996;5.180;2023-08-06T00:34:09;19.40;81.40
70456;DHT22;57916;51.996;5.180;2023-08-06T00:36:36;19.40;81.10
70456;DHT22;57916;51.996;5.180;2023-08-06T00:39:04;19.40;81.00
70456;DHT22;57916;51.996;5.180;2023-08-06T00:41:30;19.40;80.80
70456;DHT22;57916;51.996;5.180;2023-08-06T00:43:57;19.40;81.00
70456;DHT22;57916;51.996;5.180;2023-08-06T00:46:24;19.40;80.80
70456;DHT22;57916;51.996;5.180;2023-08-06T00:48:52;19.40;80.70
70456;DHT22;57916;51.996;5.180;2023-08-06T00:51:22;19.40;80.80
70456;DHT22;57916;51.996;5.180;2023-08-06T00:53:49;19.50;80.90
70456;DHT22;57916;51.996;5.180;2023-08-06T00:56:16;19.50;80.60
70456;DHT22;57916;51.996;5.180;2023-08-06T00:58:44;19.40;80.50
70456;DHT22;57916;51.996;5.180;2023-08-06T01:01:12;19.40;81.70
70456;DHT22;57916;51.996;5.180;2023-08-06T01:03:39;19.30;80.70
70456;DHT22;57916;51.996;5.180;2023-08-06T01:06:06;19.30;80.80
70456;DHT22;57916;51.996;5.180;2023-08-06T01:08:53;19.30;80.80
70456;DHT22;57916;51.996;5.180;2023-08-06T01:13:59;19.30;81.20
70456;DHT22;57916;51.996;5.180;2023-08-06T01:16:30;19.30;81.30
70456;DHT22;57916;51.996;5.180;2023-08-06T01:18:58;19.20;81.40
70456;DHT22;57916;51.996;5.180;2023-08-06T01:21:25;19.20;81.70
70456;DHT22;57916;51.996;5.180;2023-08-06T01:23:52;19.30;81.60
70456;DHT22;57916;51.996;5.180;2023-08-06T01:26:42;19.30;81.60
70456;DHT22;57916;51.996;5.180;2023-08-06T01:29:17;19.30;81.80
70456;DHT22;57916;51.996;5.180;2023-08-06T01:31:48;19.40;81.60
70456;DHT22;57916;51.996;5.180;2023-08-06T01:34:25;19.40;81.30
70456;DHT22;57916;51.996;5.180;2023-08-06T01:36:53;19.50;81.40
70456;DHT22;57916;51.996;5.180;2023-08-06T01:39:20;19.50;81.10
70456;DHT22;57916;51.996;5.180;2023-08-06T01:41:48;19.50;80.90
70456;DHT22;57916;51.996;5.180;2023-08-06T01:44:16;19.50;80.80
70456;DHT22;57916;51.996;5.180;2023-08-06T01:46:43;19.50;80.90
70456;DHT22;57916;51.996;5.180;2023-08-06T01:49:10;19.50;80.90
70456;DHT22;57916;51.996;5.180;2023-08-06T01:51:37;19.50;80.90
70456;DHT22;57916;51.996;5.180;2023-08-06T01:54:05;19.50;80.90
70456;DHT22;57916;51.996;5.180;2023-08-06T01:56:32;19.50;81.10
70456;DHT22;57916;51.996;5.180;2023-08-06T01:58:59;19.50;81.00
70456;DHT22;57916;51.996;5.180;2023-08-06T02:01:29;19.60;81.00
70456;DHT22;57916;51.996;5.180;2023-08-06T02:03:56;19.50;80.90
70456;DHT22;57916;51.996;5.180;2023-08-06T02:06:23;19.50;81.00
70456;DHT22;57916;51.996;5.180;2023-08-06T02:08:50;19.60;81.30
70456;DHT22;57916;51.996;5.180;2023-08-06T02:11:17;19.60;81.10
70456;DHT22;57916;51.996;5.180;2023-08-06T02:13:46;19.60;81.00
70456;DHT22;57916;51.996;5.180;2023-08-06T02:16:17;19.60;82.00
70456;DHT22;57916;51.996;5.180;2023-08-06T02:18:44;19.60;80.90
70456;DHT22;57916;51.996;5.180;2023-08-06T02:21:15;19.50;80.80
70456;DHT22;57916;51.996;5.180;2023-08-06T02:23:45;19.50;80.90
70456;DHT22;57916;51.996;5.180;2023-08-06T02:26:12;19.50;81.00
70456;DHT22;57916;51.996;5.180;2023-08-06T02:28:39;19.40;81.10
70456;DHT22;57916;51.996;5.180;2023-08-06T02:31:06;19.30;82.10
70456;DHT22;57916;51.996;5.180;2023-08-06T02:33:36;19.30;81.50
70456;DHT22;57916;51.996;5.180;2023-08-06T02:36:04;19.30;81.60
70456;DHT22;57916;51.996;5.180;2023-08-06T02:38:32;19.20;81.70
70456;DHT22;57916;51.996;5.180;2023-08-06T02:41:01;19.20;81.80
70456;DHT22;57916;51.996;5.180;2023-08-06T02:43:28;19.20;82.30
70456;DHT22;57916;51.996;5.180;2023-08-06T02:45:59;19.20;82.30
70456;DHT22;57916;51.996;5.180;2023-08-06T02:48:27;19.20;82.50
70456;DHT22;57916;51.996;5.180;2023-08-06T02:50:57;19.20;82.70
70456;DHT22;57916;51.996;5.180;2023-08-06T02:53:26;19.20;82.70
70456;DHT22;57916;51.996;5.180;2023-08-06T02:55:53;19.20;82.70
70456;DHT22;57916;51.996;5.180;2023-08-06T02:58:26;19.20;82.70
70456;DHT22;57916;51.996;5.180;2023-08-06T03:01:07;19.20;82.60
70456;DHT22;57916;51.996;5.180;2023-08-06T03:03:44;19.20;82.70
70456;DHT22;57916;51.996;5.180;2023-08-06T03:06:18;19.20;82.90
70456;DHT22;57916;51.996;5.180;2023-08-06T03:08:48;19.20;82.80
70456;DHT22;57916;51.996;5.180;2023-08-06T03:11:15;19.20;82.80
70456;DHT22;57916;51.996;5.180;2023-08-06T03:13:43;19.20;83.00
70456;DHT22;57916;51.996;5.180;2023-08-06T03:16:11;19.30;82.80
70456;DHT22;57916;51.996;5.180;2023-08-06T03:18:38;19.30;82.50
70456;DHT22;57916;51.996;5.180;2023-08-06T03:21:07;19.40;82.70
70456;DHT22;57916;51.996;5.180;2023-08-06T03:23:34;19.40;82.30
70456;DHT22;57916;51.996;5.180;2023-08-06T03:26:02;19.40;82.40
70456;DHT22;57916;51.996;5.180;2023-08-06T03:28:31;19.40;81.90
70456;DHT22;57916;51.996;5.180;2023-08-06T03:31:00;19.40;82.30
70456;DHT22;57916;51.996;5.180;2023-08-06T03:33:33;19.40;82.20
70456;DHT22;57916;51.996;5.180;2023-08-06T03:36:03;19.50;82.00
70456;DHT22;57916;51.996;5.180;2023-08-06T03:38:32;19.60;81.70
70456;DHT22;57916;51.996;5.180;2023-08-06T03:41:02;19.60;81.30
70456;DHT22;57916;51.996;5.180;2023-08-06T03:43:29;19.70;80.90
70456;DHT22;57916;51.996;5.180;2023-08-06T03:45:56;19.70;80.80
70456;DHT22;57916;51.996;5.180;2023-08-06T03:48:24;19.80;80.60
70456;DHT22;57916;51.996;5.180;2023-08-06T03:50:51;19.80;80.50
70456;DHT22;57916;51.996;5.180;2023-08-06T03:53:19;19.80;80.30
70456;DHT22;57916;51.996;5.180;2023-08-06T03:55:46;19.90;80.10
70456;DHT22;57916;51.996;5.180;2023-08-06T03:58:13;19.90;80.10
70456;DHT22;57916;51.996;5.180;2023-08-06T04:00:41;19.90;79.80
70456;DHT22;57916;51.996;5.180;2023-08-06T04:03:08;19.90;79.80
70456;DHT22;57916;51.996;5.180;2023-08-06T04:05:36;19.90;79.80
70456;DHT22;57916;51.996;5.180;2023-08-06T04:08:03;19.90;79.80
70456;DHT22;57916;51.996;5.180;2023-08-06T04:10:30;20.00;79.80
70456;DHT22;57916;51.996;5.180;2023-08-06T04:12:57;20.00;79.60
70456;DHT22;57916;51.996;5.180;2023-08-06T04:15:24;20.00;79.70
70456;DHT22;57916;51.996;5.180;2023-08-06T04:17:51;20.00;79.60
70456;DHT22;57916;51.996;5.180;2023-08-06T04:20:19;20.00;79.60
70456;DHT22;57916;51.996;5.180;2023-08-06T04:22:46;20.10;79.50
70456;DHT22;57916;51.996;5.180;2023-08-06T04:25:13;20.00;79.40
70456;DHT22;57916;51.996;5.180;2023-08-06T04:27:40;20.00;79.40
70456;DHT22;57916;51.996;5.180;2023-08-06T04:30:09;20.10;79.50
70456;DHT22;57916;51.996;5.180;2023-08-06T04:32:40;20.10;79.50
70456;DHT22;57916;51.996;5.180;2023-08-06T04:35:07;20.10;79.40
70456;DHT22;57916;51.996;5.180;2023-08-06T04:37:36;20.10;79.50
70456;DHT22;57916;51.996;5.180;2023-08-06T04:40:03;20.10;79.40
70456;DHT22;57916;51.996;5.180;2023-08-06T04:42:31;20.10;79.50
70456;DHT22;57916;51.996;5.180;2023-08-06T04:44:58;20.10;79.80
70456;DHT22;57916;51.996;5.180;2023-08-06T04:47:25;20.10;79.60
70456;DHT22;57916;51.996;5.180;2023-08-06T04:49:53;20.10;79.70
70456;DHT22;57916;51.996;5.180;2023-08-06T04:52:20;20.10;79.70
70456;DHT22;57916;51.996;5.180;2023-08-06T04:54:47;20.10;79.60
70456;DHT22;57916;51.996;5.180;2023-08-06T04:57:14;20.10;79.40
70456;DHT22;57916;51.996;5.180;2023-08-06T04:59:41;20.10;79.40
70456;DHT22;57916;51.996;5.180;2023-08-06T05:02:08;20.10;79.40
70456;DHT22;57916;51.996;5.180;2023-08-06T05:04:35;20.10;79.30
70456;DHT22;57916;51.996;5.180;2023-08-06T05:07:02;20.10;79.30
70456;DHT22;57916;51.996;5.180;2023-08-06T05:09:30;20.10;79.20
70456;DHT22;57916;51.996;5.180;2023-08-06T05:11:57;20.20;79.20
70456;DHT22;57916;51.996;5.180;2023-08-06T05:14:24;20.20;79.10
70456;DHT22;57916;51.996;5.180;2023-08-06T05:16:51;20.20;79.10
70456;DHT22;57916;51.996;5.180;2023-08-06T05:19:18;20.20;79.10
70456;DHT22;57916;51.996;5.180;2023-08-06T05:21:47;20.20;79.20
70456;DHT22;57916;51.996;5.180;2023-08-06T05:24:14;20.20;78.90
70456;DHT22;57916;51.996;5.180;2023-08-06T05:26:41;20.20;78.90
70456;DHT22;57916;51.996;5.180;2023-08-06T05:29:09;20.20;78.90
70456;DHT22;57916;51.996;5.180;2023-08-06T05:31:36;20.20;79.20
70456;DHT22;57916;51.996;5.180;2023-08-06T05:34:03;20.20;79.20
70456;DHT22;57916;51.996;5.180;2023-08-06T05:36:30;20.20;79.40
70456;DHT22;57916;51.996;5.180;2023-08-06T05:38:57;20.20;79.10
70456;DHT22;57916;51.996;5.180;2023-08-06T05:41:25;20.20;79.00
70456;DHT22;57916;51.996;5.180;2023-08-06T05:43:52;20.20;79.10
70456;DHT22;57916;51.996;5.180;2023-08-06T05:46:19;20.20;79.10
70456;DHT22;57916;51.996;5.180;2023-08-06T05:48:46;20.30;79.10
70456;DHT22;57916;51.996;5.180;2023-08-06T05:51:13;20.30;79.10
70456;DHT22;57916;51.996;5.180;2023-08-06T05:53:43;20.10;78.80
70456;DHT22;57916;51.996;5.180;2023-08-06T05:56:09;20.10;79.20
70456;DHT22;57916;51.996;5.180;2023-08-06T05:58:37;20.10;79.20
70456;DHT22;57916;51.996;5.180;2023-08-06T06:01:04;20.10;79.20
70456;DHT22;57916;51.996;5.180;2023-08-06T06:03:31;20.10;79.20
70456;DHT22;57916;51.996;5.180;2023-08-06T06:06:00;20.10;79.40
70456;DHT22;57916;51.996;5.180;2023-08-06T06:08:27;20.10;79.60
70456;DHT22;57916;51.996;5.180;2023-08-06T06:10:54;20.10;79.70
70456;DHT22;57916;51.996;5.180;2023-08-06T06:13:22;20.10;79.60
70456;DHT22;57916;51.996;5.180;2023-08-06T06:15:49;20.00;79.40
70456;DHT22;57916;51.996;5.180;2023-08-06T06:18:16;20.00;79.50
70456;DHT22;57916;51.996;5.180;2023-08-06T06:20:43;20.00;79.70
70456;DHT22;57916;51.996;5.180;2023-08-06T06:23:10;19.90;79.70
70456;DHT22;57916;51.996;5.180;2023-08-06T06:25:42;19.90;79.80
70456;DHT22;57916;51.996;5.180;2023-08-06T06:28:10;19.90;80.10
70456;DHT22;57916;51.996;5.180;2023-08-06T06:30:37;19.90;79.80
70456;DHT22;57916;51.996;5.180;2023-08-06T06:33:04;19.90;79.80
70456;DHT22;57916;51.996;5.180;2023-08-06T06:35:31;19.80;80.80
70456;DHT22;57916;51.996;5.180;2023-08-06T06:37:58;19.80;80.00
70456;DHT22;57916;51.996;5.180;2023-08-06T06:40:26;19.80;79.70
70456;DHT22;57916;51.996;5.180;2023-08-06T06:42:53;19.70;80.40
70456;DHT22;57916;51.996;5.180;2023-08-06T06:45:20;19.70;80.40
70456;DHT22;57916;51.996;5.180;2023-08-06T06:47:47;19.60;79.60
70456;DHT22;57916;51.996;5.180;2023-08-06T06:50:14;19.50;79.90
70456;DHT22;57916;51.996;5.180;2023-08-06T06:52:42;19.50;79.90
70456;DHT22;57916;51.996;5.180;2023-08-06T06:55:09;19.40;79.90
70456;DHT22;57916;51.996;5.180;2023-08-06T06:57:36;19.40;80.10
70456;DHT22;57916;51.996;5.180;2023-08-06T07:00:03;19.30;80.30
70456;DHT22;57916;51.996;5.180;2023-08-06T07:02:32;19.30;80.20
70456;DHT22;57916;51.996;5.180;2023-08-06T07:04:59;19.30;80.70
70456;DHT22;57916;51.996;5.180;2023-08-06T07:07:29;19.30;80.60
70456;DHT22;57916;51.996;5.180;2023-08-06T07:09:56;19.30;80.50
70456;DHT22;57916;51.996;5.180;2023-08-06T07:12:23;19.30;80.60
70456;DHT22;57916;51.996;5.180;2023-08-06T07:14:50;19.40;80.90
70456;DHT22;57916;51.996;5.180;2023-08-06T07:17:17;19.40;80.80
70456;DHT22;57916;51.996;5.180;2023-08-06T07:19:44;19.40;80.80
70456;DHT22;57916;51.996;5.180;2023-08-06T07:22:11;19.40;80.80
70456;DHT22;57916;51.996;5.180;2023-08-06T07:24:39;19.40;80.80
70456;DHT22;57916;51.996;5.180;2023-08-06T07:27:06;19.40;80.70
70456;DHT22;57916;51.996;5.180;2023-08-06T07:29:33;19.40;80.70
70456;DHT22;57916;51.996;5.180;2023-08-06T07:32:01;19.40;80.80
70456;DHT22;57916;51.996;5.180;2023-08-06T07:34:28;19.40;81.00
70456;DHT22;57916;51.996;5.180;2023-08-06T07:36:55;19.40;80.90
70456;DHT22;57916;51.996;5.180;2023-08-06T07:39:22;19.40;80.90
70456;DHT22;57916;51.996;5.180;2023-08-06T07:41:50;19.40;80.80
70456;DHT22;57916;51.996;5.180;2023-08-06T07:44:17;19.40;80.50
70456;DHT22;57916;51.996;5.180;2023-08-06T07:46:44;19.40;80.40
70456;DHT22;57916;51.996;5.180;2023-08-06T07:49:11;19.40;80.40
70456;DHT22;57916;51.996;5.180;2023-08-06T07:51:38;19.40;80.10
70456;DHT22;57916;51.996;5.180;2023-08-06T07:54:06;19.40;80.30
70456;DHT22;57916;51.996;5.180;2023-08-06T07:56:33;19.40;80.00
70456;DHT22;57916;51.996;5.180;2023-08-06T07:59:00;19.40;80.80
70456;DHT22;57916;51.996;5.180;2023-08-06T08:01:28;19.50;79.90
70456;DHT22;57916;51.996;5.180;2023-08-06T08:03:54;19.50;79.80
70456;DHT22;57916;51.996;5.180;2023-08-06T08:06:22;19.50;79.70
70456;DHT22;57916;51.996;5.180;2023-08-06T08:08:49;19.40;79.70
70456;DHT22;57916;51.996;5.180;2023-08-06T08:11:17;19.50;80.00
70456;DHT22;57916;51.996;5.180;2023-08-06T08:13:45;19.50;79.80
70456;DHT22;57916;51.996;5.180;2023-08-06T08:16:12;19.50;79.90
70456;DHT22;57916;51.996;5.180;2023-08-06T08:18:39;19.50;79.70
70456;DHT22;57916;51.996;5.180;2023-08-06T08:21:06;19.50;79.90
70456;DHT22;57916;51.996;5.180;2023-08-06T08:23:33;19.50;80.40
70456;DHT22;57916;51.996;5.180;2023-08-06T08:26:00;19.60;80.60
70456;DHT22;57916;51.996;5.180;2023-08-06T08:28:29;19.60;80.50
70456;DHT22;57916;51.996;5.180;2023-08-06T08:30:56;19.60;80.50
70456;DHT22;57916;51.996;5.180;2023-08-06T08:33:23;19.60;80.10
70456;DHT22;57916;51.996;5.180;2023-08-06T08:35:50;19.60;80.30
70456;DHT22;57916;51.996;5.180;2023-08-06T08:38:17;19.70;80.70
70456;DHT22;57916;51.996;5.180;2023-08-06T08:40:51;19.70;80.60
70456;DHT22;57916;51.996;5.180;2023-08-06T08:43:21;19.70;79.60
70456;DHT22;57916;51.996;5.180;2023-08-06T08:45:53;19.70;79.40
70456;DHT22;57916;51.996;5.180;2023-08-06T08:48:26;19.70;79.40
70456;DHT22;57916;51.996;5.180;2023-08-06T08:50:56;19.70;79.50
70456;DHT22;57916;51.996;5.180;2023-08-06T08:53:25;19.70;79.50
70456;DHT22;57916;51.996;5.180;2023-08-06T08:55:54;19.60;79.20
70456;DHT22;57916;51.996;5.180;2023-08-06T08:58:22;19.60;79.50
70456;DHT22;57916;51.996;5.180;2023-08-06T09:00:49;19.60;79.70
70456;DHT22;57916;51.996;5.180;2023-08-06T09:03:26;19.70;79.90
70456;DHT22;57916;51.996;5.180;2023-08-06T09:05:54;19.70;80.20
70456;DHT22;57916;51.996;5.180;2023-08-06T09:08:27;19.70;79.80
70456;DHT22;57916;51.996;5.180;2023-08-06T09:10:55;19.70;79.70
70456;DHT22;57916;51.996;5.180;2023-08-06T09:13:24;19.70;79.80
70456;DHT22;57916;51.996;5.180;2023-08-06T09:15:51;19.70;79.80
70456;DHT22;57916;51.996;5.180;2023-08-06T09:18:31;19.70;80.00
70456;DHT22;57916;51.996;5.180;2023-08-06T09:20:58;19.70;79.80
70456;DHT22;57916;51.996;5.180;2023-08-06T09:23:29;19.70;79.90
70456;DHT22;57916;51.996;5.180;2023-08-06T09:25:57;19.70;80.10
70456;DHT22;57916;51.996;5.180;2023-08-06T09:28:31;19.70;80.10
70456;DHT22;57916;51.996;5.180;2023-08-06T09:31:03;19.70;79.70
70456;DHT22;57916;51.996;5.180;2023-08-06T09:33:30;19.70;79.80
70456;DHT22;57916;51.996;5.180;2023-08-06T09:36:07;19.70;79.80
70456;DHT22;57916;51.996;5.180;2023-08-06T09:38:38;19.70;79.70
70456;DHT22;57916;51.996;5.180;2023-08-06T09:41:08;19.70;79.70
70456;DHT22;57916;51.996;5.180;2023-08-06T09:43:43;19.70;79.70
70456;DHT22;57916;51.996;5.180;2023-08-06T09:46:13;19.70;79.80
70456;DHT22;57916;51.996;5.180;2023-08-06T09:48:44;19.70;79.80
70456;DHT22;57916;51.996;5.180;2023-08-06T09:51:13;19.70;79.60
70456;DHT22;57916;51.996;5.180;2023-08-06T09:53:40;19.70;79.70
70456;DHT22;57916;51.996;5.180;2023-08-06T09:56:09;19.80;79.80
70456;DHT22;57916;51.996;5.180;2023-08-06T09:58:38;19.80;79.70
70456;DHT22;57916;51.996;5.180;2023-08-06T10:01:06;19.80;79.20
70456;DHT22;57916;51.996;5.180;2023-08-06T10:03:34;19.80;79.20
70456;DHT22;57916;51.996;5.180;2023-08-06T10:06:02;19.80;79.40
70456;DHT22;57916;51.996;5.180;2023-08-06T10:08:33;19.80;79.50
70456;DHT22;57916;51.996;5.180;2023-08-06T10:11:02;19.80;79.80
70456;DHT22;57916;51.996;5.180;2023-08-06T10:13:32;19.80;79.70
70456;DHT22;57916;51.996;5.180;2023-08-06T10:16:00;19.70;79.70
70456;DHT22;57916;51.996;5.180;2023-08-06T10:18:32;19.70;80.00
70456;DHT22;57916;51.996;5.180;2023-08-06T10:21:00;19.70;80.30
70456;DHT22;57916;51.996;5.180;2023-08-06T10:23:34;19.80;80.60
70456;DHT22;57916;51.996;5.180;2023-08-06T10:26:02;19.80;80.60
70456;DHT22;57916;51.996;5.180;2023-08-06T10:28:37;19.80;80.70
70456;DHT22;57916;51.996;5.180;2023-08-06T10:31:04;19.90;80.80
70456;DHT22;57916;51.996;5.180;2023-08-06T10:33:42;19.90;80.90
70456;DHT22;57916;51.996;5.180;2023-08-06T10:36:10;20.00;80.80
70456;DHT22;57916;51.996;5.180;2023-08-06T10:38:45;20.00;81.10
70456;DHT22;57916;51.996;5.180;2023-08-06T10:41:23;20.00;80.90
70456;DHT22;57916;51.996;5.180;2023-08-06T10:44:09;20.10;80.50
70456;DHT22;57916;51.996;5.180;2023-08-06T10:46:36;20.10;80.70
70456;DHT22;57916;51.996;5.180;2023-08-06T10:49:04;20.20;81.10
70456;DHT22;57916;51.996;5.180;2023-08-06T10:51:31;20.20;80.90
70456;DHT22;57916;51.996;5.180;2023-08-06T10:53:58;20.30;80.90
70456;DHT22;57916;51.996;5.180;2023-08-06T10:56:25;20.30;80.70
70456;DHT22;57916;51.996;5.180;2023-08-06T10:58:56;20.30;80.20
70456;DHT22;57916;51.996;5.180;2023-08-06T11:01:24;20.30;79.50
70456;DHT22;57916;51.996;5.180;2023-08-06T11:03:51;20.30;79.10
70456;DHT22;57916;51.996;5.180;2023-08-06T11:06:21;20.30;79.20
70456;DHT22;57916;51.996;5.180;2023-08-06T11:08:50;20.40;78.80
70456;DHT22;57916;51.996;5.180;2023-08-06T11:11:18;20.40;78.50
70456;DHT22;57916;51.996;5.180;2023-08-06T11:13:46;20.40;78.60
70456;DHT22;57916;51.996;5.180;2023-08-06T11:16:20;20.30;78.50
70456;DHT22;57916;51.996;5.180;2023-08-06T11:18:48;20.30;78.60
70456;DHT22;57916;51.996;5.180;2023-08-06T11:21:19;20.30;78.50
70456;DHT22;57916;51.996;5.180;2023-08-06T11:23:46;20.30;78.90
70456;DHT22;57916;51.996;5.180;2023-08-06T11:26:19;20.30;78.50
70456;DHT22;57916;51.996;5.180;2023-08-06T11:28:46;20.20;79.00
70456;DHT22;57916;51.996;5.180;2023-08-06T11:31:23;20.30;79.10
70456;DHT22;57916;51.996;5.180;2023-08-06T11:33:51;20.30;79.30
70456;DHT22;57916;51.996;5.180;2023-08-06T11:36:32;20.20;79.20
70456;DHT22;57916;51.996;5.180;2023-08-06T11:39:03;20.20;78.90
70456;DHT22;57916;51.996;5.180;2023-08-06T11:41:33;20.20;78.90
70456;DHT22;57916;51.996;5.180;2023-08-06T11:44:00;20.20;78.90
70456;DHT22;57916;51.996;5.180;2023-08-06T11:46:27;20.20;78.30
70456;DHT22;57916;51.996;5.180;2023-08-06T11:48:56;20.20;78.30
70456;DHT22;57916;51.996;5.180;2023-08-06T11:51:27;20.20;78.50
70456;DHT22;57916;51.996;5.180;2023-08-06T11:53:57;20.20;78.70
70456;DHT22;57916;51.996;5.180;2023-08-06T11:56:25;20.20;79.00
70456;DHT22;57916;51.996;5.180;2023-08-06T11:58:54;20.20;79.10
70456;DHT22;57916;51.996;5.180;2023-08-06T12:01:21;20.30;79.30
70456;DHT22;57916;51.996;5.180;2023-08-06T12:03:49;20.30;78.40
70456;DHT22;57916;51.996;5.180;2023-08-06T12:06:16;20.30;78.40
70456;DHT22;57916;51.996;5.180;2023-08-06T12:08:43;20.40;78.30
70456;DHT22;57916;51.996;5.180;2023-08-06T12:11:11;20.40;78.30
70456;DHT22;57916;51.996;5.180;2023-08-06T12:13:38;20.40;78.00
70456;DHT22;57916;51.996;5.180;2023-08-06T12:16:04;20.50;78.20
70456;DHT22;57916;51.996;5.180;2023-08-06T12:18:31;20.60;78.30
70456;DHT22;57916;51.996;5.180;2023-08-06T12:20:58;20.70;79.00
70456;DHT22;57916;51.996;5.180;2023-08-06T12:23:25;20.70;78.60
70456;DHT22;57916;51.996;5.180;2023-08-06T12:25:52;20.80;78.40
70456;DHT22;57916;51.996;5.180;2023-08-06T12:28:19;20.90;78.60
70456;DHT22;57916;51.996;5.180;2023-08-06T12:30:49;21.00;79.10
70456;DHT22;57916;51.996;5.180;2023-08-06T12:33:18;21.10;79.30
70456;DHT22;57916;51.996;5.180;2023-08-06T12:35:45;21.20;78.20
70456;DHT22;57916;51.996;5.180;2023-08-06T12:38:13;21.30;78.50
70456;DHT22;57916;51.996;5.180;2023-08-06T12:40:40;21.30;78.40
70456;DHT22;57916;51.996;5.180;2023-08-06T12:43:09;21.40;78.70
70456;DHT22;57916;51.996;5.180;2023-08-06T12:45:36;21.50;77.90
70456;DHT22;57916;51.996;5.180;2023-08-06T12:48:03;21.50;77.50
70456;DHT22;57916;51.996;5.180;2023-08-06T12:50:31;21.60;76.90
70456;DHT22;57916;51.996;5.180;2023-08-06T12:53:00;21.60;75.90
70456;DHT22;57916;51.996;5.180;2023-08-06T12:55:27;21.60;75.70
70456;DHT22;57916;51.996;5.180;2023-08-06T12:57:58;21.60;76.20
70456;DHT22;57916;51.996;5.180;2023-08-06T13:00:26;21.60;76.20
70456;DHT22;57916;51.996;5.180;2023-08-06T13:02:54;21.70;75.40
70456;DHT22;57916;51.996;5.180;2023-08-06T13:05:21;21.70;75.10
70456;DHT22;57916;51.996;5.180;2023-08-06T13:07:48;21.70;74.70
70456;DHT22;57916;51.996;5.180;2023-08-06T13:10:15;21.70;74.00
70456;DHT22;57916;51.996;5.180;2023-08-06T13:12:42;21.70;74.40
70456;DHT22;57916;51.996;5.180;2023-08-06T13:15:09;21.60;74.00
70456;DHT22;57916;51.996;5.180;2023-08-06T13:17:36;21.60;74.60
70456;DHT22;57916;51.996;5.180;2023-08-06T13:20:04;21.60;75.80
70456;DHT22;57916;51.996;5.180;2023-08-06T13:22:31;21.60;74.90
70456;DHT22;57916;51.996;5.180;2023-08-06T13:24:58;21.60;76.30
70456;DHT22;57916;51.996;5.180;2023-08-06T13:27:25;21.70;76.10
70456;DHT22;57916;51.996;5.180;2023-08-06T13:29:52;21.70;74.40
70456;DHT22;57916;51.996;5.180;2023-08-06T13:32:19;21.60;74.10
70456;DHT22;57916;51.996;5.180;2023-08-06T13:34:45;21.60;73.70
70456;DHT22;57916;51.996;5.180;2023-08-06T13:37:12;21.50;72.80
70456;DHT22;57916;51.996;5.180;2023-08-06T13:39:39;21.50;73.30
70456;DHT22;57916;51.996;5.180;2023-08-06T13:42:06;21.40;73.50
70456;DHT22;57916;51.996;5.180;2023-08-06T13:44:33;21.40;73.60
70456;DHT22;57916;51.996;5.180;2023-08-06T13:47:02;21.40;73.90
70456;DHT22;57916;51.996;5.180;2023-08-06T13:49:29;21.50;74.10
70456;DHT22;57916;51.996;5.180;2023-08-06T13:51:56;21.50;74.70
70456;DHT22;57916;51.996;5.180;2023-08-06T13:54:41;21.50;74.70
70456;DHT22;57916;51.996;5.180;2023-08-06T13:57:08;21.50;74.20
70456;DHT22;57916;51.996;5.180;2023-08-06T13:59:35;21.50;74.00
70456;DHT22;57916;51.996;5.180;2023-08-06T14:02:02;21.50;73.80
70456;DHT22;57916;51.996;5.180;2023-08-06T14:04:30;21.50;73.20
70456;DHT22;57916;51.996;5.180;2023-08-06T14:06:57;21.50;72.80
70456;DHT22;57916;51.996;5.180;2023-08-06T14:09:24;21.40;72.70
70456;DHT22;57916;51.996;5.180;2023-08-06T14:11:51;21.40;72.90
70456;DHT22;57916;51.996;5.180;2023-08-06T14:14:18;21.30;73.20
70456;DHT22;57916;51.996;5.180;2023-08-06T14:16:45;21.30;73.60
70456;DHT22;57916;51.996;5.180;2023-08-06T14:19:12;21.30;73.60
70456;DHT22;57916;51.996;5.180;2023-08-06T14:21:39;21.20;73.70
70456;DHT22;57916;51.996;5.180;2023-08-06T14:24:06;21.20;74.10
70456;DHT22;57916;51.996;5.180;2023-08-06T14:26:33;21.10;73.90
70456;DHT22;57916;51.996;5.180;2023-08-06T14:29:01;21.00;73.80
70456;DHT22;57916;51.996;5.180;2023-08-06T14:31:28;21.00;74.40
70456;DHT22;57916;51.996;5.180;2023-08-06T14:33:55;21.00;74.60
70456;DHT22;57916;51.996;5.180;2023-08-06T14:36:22;21.00;74.50
70456;DHT22;57916;51.996;5.180;2023-08-06T14:38:49;20.90;75.40
70456;DHT22;57916;51.996;5.180;2023-08-06T14:41:26;21.00;75.00
70456;DHT22;57916;51.996;5.180;2023-08-06T14:43:53;21.00;75.50
70456;DHT22;57916;51.996;5.180;2023-08-06T14:46:21;21.00;75.50
70456;DHT22;57916;51.996;5.180;2023-08-06T14:48:48;21.00;75.90
70456;DHT22;57916;51.996;5.180;2023-08-06T14:51:15;21.00;76.10
70456;DHT22;57916;51.996;5.180;2023-08-06T14:53:42;21.00;75.70
70456;DHT22;57916;51.996;5.180;2023-08-06T14:56:09;21.00;75.50
70456;DHT22;57916;51.996;5.180;2023-08-06T14:58:36;20.90;75.40
70456;DHT22;57916;51.996;5.180;2023-08-06T15:01:03;20.70;74.90
70456;DHT22;57916;51.996;5.180;2023-08-06T15:03:31;20.70;75.10
70456;DHT22;57916;51.996;5.180;2023-08-06T15:05:58;20.60;75.10
70456;DHT22;57916;51.996;5.180;2023-08-06T15:08:25;20.50;74.90
70456;DHT22;57916;51.996;5.180;2023-08-06T15:10:53;20.30;75.30
70456;DHT22;57916;51.996;5.180;2023-08-06T15:13:20;20.20;75.80
70456;DHT22;57916;51.996;5.180;2023-08-06T15:15:51;20.10;76.10
70456;DHT22;57916;51.996;5.180;2023-08-06T15:18:18;20.00;77.00
70456;DHT22;57916;51.996;5.180;2023-08-06T15:20:46;19.90;76.60
70456;DHT22;57916;51.996;5.180;2023-08-06T15:23:13;19.80;76.70
70456;DHT22;57916;51.996;5.180;2023-08-06T15:25:40;19.80;77.40
70456;DHT22;57916;51.996;5.180;2023-08-06T15:28:07;19.70;77.50
70456;DHT22;57916;51.996;5.180;2023-08-06T15:30:34;19.70;77.70
70456;DHT22;57916;51.996;5.180;2023-08-06T15:33:01;19.70;77.70
70456;DHT22;57916;51.996;5.180;2023-08-06T15:35:29;19.70;77.50
70456;DHT22;57916;51.996;5.180;2023-08-06T15:37:56;19.70;77.90
70456;DHT22;57916;51.996;5.180;2023-08-06T15:40:23;19.70;77.80